Resolute Bay Airport
CYRB : now visible

Airfield :











YOU CAN JOIN US ON...

 
LOGIN :

Register | Disclaimer

   EN    FR    IT 

 









Legend :    VFR   Marginal VFR   IFR   Intensive IFR   Very Intensive IFR
Visi :
Ceiling :
>= 8 km
>= 3000ft
5 to 8 km
1000 to 3000 ft
1500m to 5 km
500 to 1000 ft
800 to 1500m
200 to 500 ft
< 800m
< 200 ft
Symbols :   Thunderstorms  Fog  Heavy snow  Heavy precipitations  Wind > 20 kt






- Airport Elevation : 215 ft
- IATA code : YRB


CYRB - Resolute Bay

CURRENT METAR :
  • 151900Z 04021KT 12SM IC DRSN SCT120 M22/M25 A2966 RMK AC4 SLP058

EXPIRED METARs :
  • 151800Z 05024KT 12SM IC DRSN BKN120 M21/M25 A2966 RMK AC7 SLP056
  • 151700Z 06017KT 12SM IC DRSN BKN100 M21/M25 A2966 RMK AC5 SLP057

TAF TAF CYRB
Valid from the 15 at 18:00 until the 16 at 18:00 UTC


151739Z 1518/1618 07018KT P6SM IC SCT020
TEMPO 1518/1524 4SM IC FEW020
BECMG 1522/1524 10020KT
FM160000 10020KT 2SM IC BLSN FEW015
TEMPO 1600/1606 P6SM IC SKC
FM160600 09020KT 5SM IC BLSN SKC
FM161500 08018KT 2SM -SN BLSN SCT020 BKN040 RMK NXT FCST BY 160000Z



MET'MAP, your aeronautical weather chart ! - Copyright ORBIFLY December 2007 - Disclaimer

ORBIFLY MET'MAP TEAM :

Programming & Development : Alexandra Zaïnal
Concept & original design : Baudouin d'Aumeries
Assistance for programming : Marc-Olivier Méhu
Technical & hardware support : Manuel Goepfert

Contact : metmap@orbifly.com




SOURCES & CREDITS :

   NOAA       Earth
Advisory